Time;durP1;ratioP1;P1;durP2;ratioP2;P2;SDS_P1;SDS_P2;PMS_P1;PMS_P2;Temp;Humidity;BMP_temperature;BMP_pressure;BME280_temperature;BME280_humidity;BME280_pressure;Samples;Min_cycle;Max_cycle;Signal;HPM_P1;HPM_P2
2023/01/13 00:00:42;;;;;;;44.97;5.70;;;9.10;99.90;;;;;;5037864;28;20071;-76
2023/01/13 00:03:07;;;;;;;41.30;6.07;;;9.00;99.90;;;;;;5043457;28;20021;-75
2023/01/13 00:05:33;;;;;;;37.22;5.95;;;9.00;99.90;;;;;;5044231;28;20104;-76
2023/01/13 00:07:59;;;;;;;41.13;5.78;;;9.00;99.90;;;;;;5043044;28;20107;-75
2023/01/13 00:10:24;;;;;;;50.08;5.68;;;9.00;99.90;;;;;;5043674;28;20383;-76
2023/01/13 00:12:52;;;;;;;43.10;5.68;;;9.00;99.90;;;;;;5042501;28;20078;-76
2023/01/13 00:15:17;;;;;;;40.50;6.00;;;9.00;99.90;;;;;;5045428;28;20377;-76
2023/01/13 00:17:43;;;;;;;44.22;6.20;;;9.00;99.90;;;;;;5047948;28;20021;-76
2023/01/13 00:20:10;;;;;;;42.95;5.80;;;9.10;99.90;;;;;;5033945;28;20052;-76
2023/01/13 00:22:35;;;;;;;45.20;5.63;;;9.10;99.90;;;;;;5045492;28;20040;-76
2023/01/13 00:25:03;;;;;;;49.13;6.60;;;9.10;99.90;;;;;;5042409;28;20017;-76
2023/01/13 00:27:29;;;;;;;48.90;6.75;;;9.10;99.90;;;;;;5052858;28;20036;-76
2023/01/13 00:29:55;;;;;;;48.03;5.90;;;9.10;99.90;;;;;;5052778;28;20028;-76
2023/01/13 00:32:20;;;;;;;56.65;6.72;;;9.20;99.90;;;;;;5046566;28;20017;-76
2023/01/13 00:34:46;;;;;;;44.80;6.40;;;9.20;99.90;;;;;;5051236;28;20025;-76
2023/01/13 00:37:13;;;;;;;48.30;6.50;;;9.30;99.90;;;;;;5045187;28;20103;-76
2023/01/13 00:39:39;;;;;;;51.58;7.70;;;9.30;99.90;;;;;;5048469;28;20031;-76
2023/01/13 00:44:50;;;;;;;46.83;7.25;;;9.20;99.90;;;;;;5051061;28;20044;-76
2023/01/13 00:47:16;;;;;;;47.05;6.82;;;9.30;99.90;;;;;;5042365;28;20053;-76
2023/01/13 00:49:41;;;;;;;66.72;6.95;;;9.20;99.90;;;;;;5036600;28;20176;-76
2023/01/13 00:52:07;;;;;;;65.10;7.60;;;9.20;99.90;;;;;;5037825;28;20032;-76
2023/01/13 00:54:32;;;;;;;61.70;9.10;;;9.20;99.90;;;;;;5052065;28;20033;-76
2023/01/13 00:56:58;;;;;;;59.17;7.05;;;9.20;99.90;;;;;;5047216;28;20487;-76
2023/01/13 00:59:24;;;;;;;56.58;7.25;;;9.10;99.90;;;;;;5046288;28;20060;-76
2023/01/13 01:01:49;;;;;;;60.17;7.50;;;9.10;99.90;;;;;;5043876;28;20768;-76
2023/01/13 01:04:15;;;;;;;57.08;7.55;;;9.10;99.90;;;;;;5052056;28;20032;-76
2023/01/13 01:06:40;;;;;;;50.50;6.75;;;9.10;99.90;;;;;;5044383;28;20032;-76
2023/01/13 01:09:06;;;;;;;54.10;6.82;;;9.10;99.90;;;;;;5036518;28;20025;-76
2023/01/13 01:11:33;;;;;;;56.33;6.93;;;9.10;99.90;;;;;;5033741;28;20053;-76
2023/01/13 01:14:01;;;;;;;48.60;6.32;;;9.10;99.90;;;;;;5035263;28;20527;-76
2023/01/13 01:16:29;;;;;;;55.97;7.18;;;9.10;99.90;;;;;;5039638;28;20018;-76
2023/01/13 01:18:55;;;;;;;51.95;7.63;;;9.10;99.90;;;;;;5030698;28;20052;-76
2023/01/13 01:21:23;;;;;;;50.85;7.32;;;9.10;99.90;;;;;;5032037;28;20017;-76
2023/01/13 01:23:48;;;;;;;46.67;6.93;;;9.10;99.90;;;;;;5045996;28;20222;-76
2023/01/13 01:26:17;;;;;;;54.60;7.32;;;9.10;99.90;;;;;;5051725;28;20036;-76
2023/01/13 01:28:43;;;;;;;50.47;6.47;;;9.10;99.90;;;;;;5036482;28;20032;-76
2023/01/13 01:31:18;;;;;;;50.65;6.57;;;9.10;99.90;;;;;;5041452;28;20087;-76
2023/01/13 01:33:45;;;;;;;53.60;7.37;;;9.10;99.90;;;;;;5045413;28;20049;-76
2023/01/13 01:36:11;;;;;;;50.15;7.47;;;9.10;99.90;;;;;;5039598;28;20068;-76
2023/01/13 01:38:37;;;;;;;62.00;8.18;;;9.00;99.90;;;;;;5049966;28;20024;-77
2023/01/13 01:41:03;;;;;;;54.58;6.63;;;9.00;99.90;;;;;;5051631;28;20017;-76
2023/01/13 01:44:00;;;;;;;52.20;6.53;;;9.00;99.90;;;;;;5051638;28;20025;-76
2023/01/13 01:46:36;;;;;;;54.00;7.78;;;9.00;99.90;;;;;;5038788;28;20053;-76
2023/01/13 01:49:08;;;;;;;61.60;7.82;;;9.00;99.90;;;;;;5032098;28;20034;-76
2023/01/13 01:51:59;;;;;;;54.97;8.32;;;9.00;99.90;;;;;;5043863;28;20021;-76
2023/01/13 01:54:36;;;;;;;54.28;7.47;;;8.90;99.90;;;;;;5050589;28;20037;-75
2023/01/13 01:57:02;;;;;;;52.45;7.68;;;8.90;99.90;;;;;;5046487;28;20460;-76
2023/01/13 01:59:30;;;;;;;61.97;8.07;;;8.90;99.90;;;;;;5041724;28;20020;-76
2023/01/13 02:01:56;;;;;;;61.58;8.10;;;8.90;99.90;;;;;;5050079;28;20060;-76
2023/01/13 02:04:28;;;;;;;66.20;8.35;;;8.90;99.90;;;;;;5048853;28;20021;-76
2023/01/13 02:06:55;;;;;;;54.42;7.40;;;9.00;99.90;;;;;;5040709;28;20088;-75
2023/01/13 02:09:21;;;;;;;62.53;8.48;;;9.00;99.90;;;;;;5047513;28;20033;-76
2023/01/13 02:14:32;;;;;;;68.43;8.55;;;9.00;99.90;;;;;;5048900;28;20028;-76
2023/01/13 02:17:19;;;;;;;59.50;7.30;;;9.00;99.90;;;;;;5049049;28;20032;-76
2023/01/13 02:20:16;;;;;;;73.50;8.45;;;9.00;99.90;;;;;;5048010;28;20056;-76
2023/01/13 02:27:00;;;;;;;54.80;8.20;;;9.00;99.90;;;;;;4948345;28;20043;-76
2023/01/13 02:33:04;;;;;;;51.13;7.38;;;8.90;99.90;;;;;;4948011;28;20052;-76
2023/01/13 02:35:36;;;;;;;61.40;7.45;;;8.90;99.90;;;;;;4945497;29;20497;-76
2023/01/13 02:38:03;;;;;;;55.70;7.05;;;8.90;99.90;;;;;;4948857;29;20557;-76
2023/01/13 02:40:46;;;;;;;48.83;7.03;;;8.90;99.90;;;;;;4948794;28;20035;-76
2023/01/13 02:46:19;;;;;;;55.15;6.53;;;8.90;99.90;;;;;;4947877;29;20026;-76
2023/01/13 02:48:47;;;;;;;45.00;6.60;;;8.90;99.90;;;;;;4948605;29;20426;-76
2023/01/13 02:51:16;;;;;;;47.10;5.90;;;9.00;99.90;;;;;;4949879;29;20087;-75
2023/01/13 02:53:47;;;;;;;44.47;6.72;;;9.00;99.90;;;;;;4948064;28;20037;-76
2023/01/13 02:56:15;;;;;;;42.10;6.10;;;9.00;99.90;;;;;;4949508;29;20576;-76
2023/01/13 02:58:42;;;;;;;44.30;5.65;;;9.00;99.90;;;;;;4941080;29;20058;-75
2023/01/13 03:01:08;;;;;;;39.63;6.68;;;8.90;99.90;;;;;;4946766;29;20082;-76
2023/01/13 03:03:35;;;;;;;38.17;6.25;;;8.90;99.90;;;;;;5022768;28;20391;-76
2023/01/13 03:06:34;;;;;;;39.60;6.00;;;8.90;99.90;;;;;;5050385;28;20075;-75
2023/01/13 03:09:10;;;;;;;44.88;6.20;;;8.90;99.90;;;;;;5049373;28;20041;-75
2023/01/13 03:11:54;;;;;;;45.53;5.78;;;8.90;99.90;;;;;;5049989;28;20056;-76
2023/01/13 03:14:42;;;;;;;37.53;5.00;;;8.90;99.90;;;;;;5050009;28;20029;-75
2023/01/13 03:17:30;;;;;;;33.63;4.97;;;8.90;99.90;;;;;;5050090;28;20109;-76
2023/01/13 03:20:20;;;;;;;39.15;5.53;;;8.90;99.90;;;;;;5049336;28;20112;-75
2023/01/13 03:23:09;;;;;;;29.50;4.63;;;8.80;99.90;;;;;;5043325;28;20025;-76
2023/01/13 03:25:44;;;;;;;43.88;5.43;;;8.90;99.90;;;;;;4948639;29;20098;-75
2023/01/13 03:28:33;;;;;;;32.03;4.80;;;8.80;99.90;;;;;;4944865;29;20079;-75
2023/01/13 03:31:05;;;;;;;39.63;4.80;;;8.80;99.90;;;;;;4946998;29;20139;-76
2023/01/13 03:33:38;;;;;;;36.17;5.05;;;8.80;99.90;;;;;;4943812;28;20093;-76
2023/01/13 03:36:09;;;;;;;39.08;5.38;;;8.80;99.90;;;;;;4948967;29;20486;-76
2023/01/13 03:38:44;;;;;;;37.95;4.95;;;8.80;99.90;;;;;;4949168;28;20127;-76
2023/01/13 03:41:20;;;;;;;35.72;4.60;;;8.80;99.90;;;;;;4950035;28;20494;-76
2023/01/13 03:44:22;;;;;;;27.58;4.05;;;8.70;99.90;;;;;;4945986;28;20036;-75
2023/01/13 03:47:10;;;;;;;25.60;3.80;;;8.80;99.90;;;;;;4944698;28;20129;-75
2023/01/13 03:49:57;;;;;;;30.80;4.22;;;8.80;99.90;;;;;;4950701;28;20398;-75
2023/01/13 03:52:27;;;;;;;26.17;4.10;;;8.80;99.90;;;;;;4941482;29;20039;-75
2023/01/13 03:55:02;;;;;;;26.58;3.83;;;8.70;99.90;;;;;;4951094;29;20028;-76
2023/01/13 03:57:34;;;;;;;23.08;3.80;;;8.70;99.90;;;;;;4944537;28;20039;-75
2023/01/13 04:00:02;;;;;;;29.50;3.92;;;8.70;99.90;;;;;;4945809;29;20032;-75
2023/01/13 04:03:10;;;;;;;26.85;3.80;;;8.70;99.90;;;;;;4995303;28;20025;-75
2023/01/13 04:05:40;;;;;;;29.58;3.42;;;8.70;99.90;;;;;;5027450;28;20045;-75
2023/01/13 04:08:25;;;;;;;19.65;3.40;;;8.60;99.90;;;;;;5043920;28;20025;-75
2023/01/13 04:11:06;;;;;;;28.38;3.30;;;8.60;99.90;;;;;;5051783;28;20045;-75
2023/01/13 04:13:36;;;;;;;27.45;3.75;;;8.60;99.90;;;;;;5050999;28;20110;-75
2023/01/13 04:16:05;;;;;;;24.63;3.65;;;8.60;99.90;;;;;;5047933;28;20036;-75
2023/01/13 04:18:30;;;;;;;24.98;3.60;;;8.60;99.90;;;;;;5052050;28;20017;-75
2023/01/13 04:20:59;;;;;;;25.30;3.05;;;8.60;99.90;;;;;;5051826;28;20832;-75
2023/01/13 04:23:26;;;;;;;23.73;3.30;;;8.60;99.90;;;;;;5052425;28;20565;-75
2023/01/13 04:25:53;;;;;;;25.52;3.05;;;8.60;99.90;;;;;;5050034;28;20475;-75
2023/01/13 04:28:19;;;;;;;26.75;3.28;;;8.70;99.90;;;;;;5052762;28;20025;-75
2023/01/13 04:30:45;;;;;;;30.27;4.20;;;8.60;99.90;;;;;;5049277;28;20033;-75
2023/01/13 04:33:13;;;;;;;26.48;3.42;;;8.70;99.90;;;;;;5043975;28;20484;-76
2023/01/13 04:35:39;;;;;;;32.03;3.40;;;8.60;99.90;;;;;;5014356;28;20032;-73
2023/01/13 04:38:09;;;;;;;22.73;2.97;;;8.60;99.90;;;;;;5034482;28;20104;-74
2023/01/13 04:40:35;;;;;;;31.77;4.05;;;8.60;99.90;;;;;;5041992;28;20488;-73
2023/01/13 04:43:01;;;;;;;26.17;3.50;;;8.70;99.90;;;;;;5049805;28;20035;-74
2023/01/13 04:45:26;;;;;;;29.08;3.40;;;8.70;99.90;;;;;;5052070;28;20471;-73
2023/01/13 04:47:52;;;;;;;28.75;3.55;;;8.70;99.90;;;;;;5049564;28;20095;-74
2023/01/13 04:50:21;;;;;;;26.80;3.50;;;8.80;99.90;;;;;;5050804;28;20056;-73
2023/01/13 04:52:47;;;;;;;29.33;3.72;;;8.80;99.90;;;;;;5048822;28;20110;-73
2023/01/13 04:55:14;;;;;;;30.20;3.88;;;8.80;99.90;;;;;;5040804;28;20502;-74
2023/01/13 04:57:39;;;;;;;22.15;3.08;;;8.90;99.90;;;;;;5037940;28;20029;-74
2023/01/13 05:00:06;;;;;;;25.95;3.15;;;8.90;99.90;;;;;;5052388;28;20427;-74
2023/01/13 05:02:32;;;;;;;24.55;3.42;;;8.90;99.90;;;;;;5050463;28;20483;-73
2023/01/13 05:04:58;;;;;;;29.65;3.53;;;8.90;99.90;;;;;;5032110;28;20025;-74
2023/01/13 05:07:24;;;;;;;26.40;3.65;;;8.90;99.90;;;;;;5051413;28;20136;-74
2023/01/13 05:09:49;;;;;;;26.60;3.83;;;8.90;99.90;;;;;;5052106;28;20033;-74
2023/01/13 05:17:44;;;;;;;26.63;3.10;;;8.90;99.90;;;;;;5046367;28;20494;-75
2023/01/13 05:20:10;;;;;;;29.98;3.22;;;8.90;99.90;;;;;;5050717;28;20020;-74
2023/01/13 05:25:24;;;;;;;29.85;4.10;;;8.90;99.90;;;;;;5050745;28;20036;-74
2023/01/13 05:27:57;;;;;;;29.25;3.47;;;8.90;99.90;;;;;;5050569;28;20406;-74
2023/01/13 05:30:28;;;;;;;21.05;3.75;;;8.90;99.90;;;;;;5041599;28;20032;-73
2023/01/13 05:32:55;;;;;;;24.48;3.42;;;8.80;99.90;;;;;;5050931;28;20024;-74
2023/01/13 05:35:20;;;;;;;26.30;3.78;;;8.80;99.90;;;;;;5039393;28;20016;-75
2023/01/13 05:37:46;;;;;;;29.67;3.97;;;8.80;99.90;;;;;;5040579;28;20521;-74
2023/01/13 05:43:20;;;;;;;27.45;4.10;;;8.70;99.90;;;;;;5036878;28;20047;-74
2023/01/13 05:45:58;;;;;;;30.60;4.45;;;8.70;99.90;;;;;;5034673;28;20044;-74
2023/01/13 05:48:36;;;;;;;37.25;3.97;;;8.70;99.90;;;;;;5039069;28;20071;-74
2023/01/13 05:51:03;;;;;;;34.78;4.00;;;8.70;99.90;;;;;;5040737;28;20096;-75
2023/01/13 05:53:29;;;;;;;32.13;3.40;;;8.70;99.90;;;;;;5038354;28;20045;-74
2023/01/13 05:55:55;;;;;;;29.00;4.35;;;8.70;99.90;;;;;;5035684;28;20314;-75
2023/01/13 05:58:23;;;;;;;25.35;3.55;;;8.70;99.90;;;;;;5035483;28;20491;-74
2023/01/13 06:00:49;;;;;;;32.90;4.35;;;8.70;99.90;;;;;;5039585;28;20017;-74
2023/01/13 06:03:15;;;;;;;19.92;3.45;;;8.70;99.90;;;;;;5034393;28;20033;-74
2023/01/13 06:05:41;;;;;;;26.08;3.97;;;8.80;99.90;;;;;;5038569;28;20032;-74
2023/01/13 06:08:07;;;;;;;30.23;4.55;;;8.80;99.90;;;;;;5034727;28;20113;-73
2023/01/13 06:10:34;;;;;;;24.42;4.40;;;8.80;99.90;;;;;;5040931;28;20075;-74
2023/01/13 06:13:00;;;;;;;34.70;4.25;;;8.80;99.90;;;;;;5034195;28;20416;-75
2023/01/13 06:15:25;;;;;;;27.60;4.15;;;8.80;99.90;;;;;;5032695;28;20022;-74
2023/01/13 06:17:51;;;;;;;32.10;4.25;;;8.90;99.90;;;;;;5039053;28;20029;-74
2023/01/13 06:20:17;;;;;;;24.55;4.07;;;8.90;99.90;;;;;;5034555;28;20379;-74
2023/01/13 06:22:48;;;;;;;31.00;4.30;;;8.90;99.90;;;;;;5034825;28;20454;-74
2023/01/13 06:25:27;;;;;;;31.08;4.22;;;8.90;99.90;;;;;;5038341;28;20024;-73
2023/01/13 06:27:55;;;;;;;25.67;4.40;;;8.90;99.90;;;;;;5036267;28;20048;-74
2023/01/13 06:30:20;;;;;;;31.02;4.00;;;8.90;99.90;;;;;;5045839;28;20044;-73
2023/01/13 06:32:50;;;;;;;36.63;4.57;;;8.90;99.90;;;;;;5031679;28;20045;-73
2023/01/13 06:35:20;;;;;;;32.38;4.20;;;8.90;99.90;;;;;;5048563;28;20021;-73
2023/01/13 06:37:48;;;;;;;31.10;5.40;;;9.00;99.90;;;;;;5037066;28;20020;-73
2023/01/13 06:40:14;;;;;;;28.02;4.07;;;9.00;99.90;;;;;;5049841;28;20021;-73
2023/01/13 06:45:26;;;;;;;37.37;4.17;;;9.00;99.90;;;;;;5035868;28;20072;-74
2023/01/13 06:47:53;;;;;;;26.83;4.45;;;9.00;99.90;;;;;;5043562;28;20753;-74
2023/01/13 06:50:19;;;;;;;27.60;4.10;;;9.00;99.90;;;;;;5040657;28;20033;-73
2023/01/13 06:52:45;;;;;;;28.25;4.47;;;9.00;99.90;;;;;;5037270;28;20021;-73
2023/01/13 06:55:11;;;;;;;20.00;3.30;;;9.00;99.90;;;;;;5037266;28;20110;-73
2023/01/13 06:57:47;;;;;;;25.58;4.13;;;9.00;99.90;;;;;;5036947;28;20029;-73
2023/01/13 07:00:14;;;;;;;28.40;3.95;;;9.00;99.90;;;;;;5038421;28;20078;-73
2023/01/13 07:02:40;;;;;;;32.20;3.85;;;9.00;99.90;;;;;;5040770;28;20052;-73
2023/01/13 07:05:06;;;;;;;31.83;4.55;;;9.00;99.90;;;;;;5042877;28;20044;-73
2023/01/13 07:07:32;;;;;;;29.02;4.47;;;9.00;99.90;;;;;;5043704;28;20025;-73
2023/01/13 07:09:58;;;;;;;33.35;4.88;;;9.00;99.90;;;;;;5049802;28;20494;-72
2023/01/13 07:12:24;;;;;;;33.80;5.13;;;9.00;99.90;;;;;;5049068;28;20029;-72
2023/01/13 07:17:34;;;;;;;31.80;4.40;;;9.00;99.90;;;;;;5051132;28;20075;-72
2023/01/13 07:19:59;;;;;;;31.15;4.20;;;9.00;99.90;;;;;;5048313;28;20060;-72
2023/01/13 07:22:25;;;;;;;31.75;4.72;;;9.00;99.90;;;;;;5040414;28;20099;-72
2023/01/13 07:24:51;;;;;;;34.63;4.15;;;9.00;99.90;;;;;;5040785;28;20047;-72
2023/01/13 07:27:16;;;;;;;26.35;4.80;;;9.00;99.90;;;;;;5040845;28;20471;-71
2023/01/13 07:29:42;;;;;;;26.38;3.90;;;9.00;99.90;;;;;;5043388;28;20377;-72
2023/01/13 07:32:08;;;;;;;33.90;4.18;;;9.00;99.90;;;;;;5051522;28;20021;-72
2023/01/13 07:34:34;;;;;;;25.60;4.13;;;9.10;99.90;;;;;;5042548;28;20083;-72
2023/01/13 07:37:00;;;;;;;30.90;4.60;;;9.10;99.90;;;;;;5048936;28;20021;-72
2023/01/13 07:39:26;;;;;;;29.95;4.15;;;9.10;99.90;;;;;;5047768;28;20092;-72
2023/01/13 07:44:36;;;;;;;32.00;4.72;;;9.20;99.90;;;;;;5054244;28;20443;-72
2023/01/13 07:47:02;;;;;;;29.42;4.10;;;9.20;99.90;;;;;;5053080;28;20068;-72
2023/01/13 07:49:27;;;;;;;37.83;4.32;;;9.20;99.90;;;;;;5053655;28;20399;-72
2023/01/13 07:51:53;;;;;;;25.90;3.95;;;9.20;99.90;;;;;;5053410;28;20492;-72
2023/01/13 07:54:19;;;;;;;29.85;3.92;;;9.20;99.90;;;;;;5038273;28;20036;-72
2023/01/13 07:56:44;;;;;;;29.02;4.15;;;9.20;99.90;;;;;;5033340;28;20021;-72
2023/01/13 07:59:10;;;;;;;31.42;4.03;;;9.20;99.90;;;;;;5045679;28;20025;-72
2023/01/13 08:01:36;;;;;;;33.25;4.53;;;9.20;99.90;;;;;;5033926;28;20357;-72
2023/01/13 08:04:01;;;;;;;31.33;4.28;;;9.30;99.90;;;;;;5033524;28;20425;-72
2023/01/13 08:06:27;;;;;;;24.90;4.43;;;9.30;99.90;;;;;;5034908;28;20395;-72
2023/01/13 08:08:53;;;;;;;34.22;4.32;;;9.30;99.90;;;;;;5039967;28;20465;-72
2023/01/13 08:11:19;;;;;;;29.58;4.15;;;9.30;99.90;;;;;;5052680;28;20063;-72
2023/01/13 08:13:45;;;;;;;30.48;4.88;;;9.30;99.90;;;;;;5045705;28;20025;-72
2023/01/13 08:16:12;;;;;;;30.10;4.13;;;9.30;99.90;;;;;;5050058;28;20040;-72
2023/01/13 08:18:38;;;;;;;45.17;5.18;;;9.30;99.90;;;;;;5042470;28;20105;-72
2023/01/13 08:21:13;;;;;;;32.45;4.43;;;9.30;99.90;;;;;;5031728;28;20025;-73
2023/01/13 08:23:40;;;;;;;28.07;4.03;;;9.30;99.90;;;;;;5042200;28;20119;-72
2023/01/13 08:26:08;;;;;;;30.95;4.28;;;9.30;99.90;;;;;;5048528;28;20020;-72
2023/01/13 08:28:34;;;;;;;24.70;4.22;;;9.20;99.90;;;;;;5035163;28;20503;-71
2023/01/13 08:31:04;;;;;;;33.47;4.97;;;9.20;99.90;;;;;;5044537;28;20064;-72
2023/01/13 08:33:31;;;;;;;35.25;4.82;;;9.10;99.90;;;;;;5039617;28;20503;-71
2023/01/13 08:35:57;;;;;;;31.90;4.72;;;9.10;99.90;;;;;;5044040;28;20606;-72
2023/01/13 08:38:23;;;;;;;33.53;4.90;;;9.10;99.90;;;;;;5039308;28;20108;-72
2023/01/13 08:40:49;;;;;;;23.95;4.03;;;9.10;99.90;;;;;;5052124;28;20025;-72
2023/01/13 08:43:14;;;;;;;28.65;4.88;;;9.00;99.90;;;;;;5046917;28;20021;-72
2023/01/13 08:45:40;;;;;;;32.78;4.90;;;9.00;99.90;;;;;;5035794;28;20100;-73
2023/01/13 08:48:07;;;;;;;29.80;4.00;;;8.90;99.90;;;;;;5047863;28;20045;-73
2023/01/13 08:50:32;;;;;;;31.75;4.35;;;8.90;99.90;;;;;;5051620;28;20036;-73
2023/01/13 08:52:59;;;;;;;29.40;4.03;;;8.90;99.90;;;;;;5048141;28;20017;-73
2023/01/13 08:55:24;;;;;;;38.97;5.15;;;8.90;99.90;;;;;;5042188;28;20013;-72
2023/01/13 08:57:50;;;;;;;34.42;5.15;;;8.80;99.90;;;;;;5036713;28;20032;-72
2023/01/13 09:00:16;;;;;;;30.05;4.50;;;8.80;99.90;;;;;;5050059;28;20018;-72
2023/01/13 09:02:42;;;;;;;28.83;3.63;;;8.80;99.90;;;;;;5036336;28;20021;-72
2023/01/13 09:05:09;;;;;;;35.95;4.35;;;8.80;99.90;;;;;;5049536;28;20033;-72
2023/01/13 09:07:37;;;;;;;35.90;5.28;;;8.80;99.90;;;;;;5040486;28;20029;-72
2023/01/13 09:10:04;;;;;;;26.73;4.45;;;8.80;99.90;;;;;;5040039;28;20456;-73
2023/01/13 09:15:17;;;;;;;28.38;4.38;;;8.90;99.90;;;;;;5050859;28;20032;-72
2023/01/13 09:17:43;;;;;;;29.88;4.47;;;8.90;99.90;;;;;;5050181;28;20025;-72
2023/01/13 09:20:09;;;;;;;33.17;5.03;;;9.00;99.90;;;;;;5048380;28;20025;-72
2023/01/13 09:22:36;;;;;;;37.08;5.00;;;9.00;99.90;;;;;;5049439;28;20029;-73
2023/01/13 09:25:02;;;;;;;37.05;4.32;;;9.10;99.90;;;;;;5032270;28;20021;-72
2023/01/13 09:27:28;;;;;;;32.00;4.45;;;9.10;99.90;;;;;;5050700;28;20029;-72
2023/01/13 09:29:53;;;;;;;28.27;4.22;;;9.10;99.90;;;;;;5046393;28;20095;-72
2023/01/13 09:32:19;;;;;;;29.92;4.28;;;9.10;99.90;;;;;;5049810;28;20146;-72
2023/01/13 09:35:00;;;;;;;33.00;4.68;;;9.20;99.90;;;;;;5049209;28;20468;-72
2023/01/13 09:37:32;;;;;;;28.40;4.35;;;9.20;99.90;;;;;;5050549;28;20056;-72
2023/01/13 09:39:58;;;;;;;37.38;5.13;;;9.20;99.90;;;;;;5045778;28;20060;-72
2023/01/13 09:45:45;;;;;;;25.30;4.28;;;9.30;99.90;;;;;;5043162;28;20383;-72
2023/01/13 09:48:50;;;;;;;31.38;3.95;;;9.30;99.90;;;;;;5049161;28;20052;-72
2023/01/13 09:51:30;;;;;;;31.20;4.35;;;9.30;99.90;;;;;;5036512;28;20021;-72
2023/01/13 09:54:05;;;;;;;28.55;4.00;;;9.30;99.90;;;;;;5043177;28;20037;-72
2023/01/13 09:56:31;;;;;;;35.33;4.68;;;9.40;99.90;;;;;;5048762;28;20033;-72
2023/01/13 09:58:57;;;;;;;29.85;4.50;;;9.40;99.90;;;;;;5039770;28;20083;-72
2023/01/13 10:01:26;;;;;;;29.60;4.47;;;9.40;99.90;;;;;;5043292;28;20028;-72
2023/01/13 10:03:52;;;;;;;28.10;4.07;;;9.50;99.90;;;;;;5039668;28;20135;-72
2023/01/13 10:06:40;;;;;;;23.33;3.90;;;9.50;99.90;;;;;;5032965;28;20040;-73
2023/01/13 10:09:17;;;;;;;30.60;4.65;;;9.50;99.90;;;;;;5046328;28;20396;-73
2023/01/13 10:14:40;;;;;;;25.45;3.70;;;9.50;99.90;;;;;;5034320;28;20028;-73
2023/01/13 10:17:18;;;;;;;20.70;3.22;;;9.50;99.90;;;;;;5049235;28;20112;-73
2023/01/13 10:19:48;;;;;;;29.65;3.70;;;9.50;99.90;;;;;;5043149;28;20499;-72
2023/01/13 10:22:53;;;;;;;23.70;3.50;;;9.50;99.90;;;;;;5030632;28;20021;-72
2023/01/13 10:25:30;;;;;;;22.60;3.50;;;9.50;99.90;;;;;;5029965;28;20033;-72
2023/01/13 10:28:07;;;;;;;19.83;3.30;;;9.50;99.90;;;;;;5031300;28;20033;-73
2023/01/13 10:30:37;;;;;;;22.05;3.47;;;9.60;99.90;;;;;;5050847;28;20040;-72
2023/01/13 10:33:19;;;;;;;21.40;3.30;;;9.60;99.90;;;;;;5047835;28;20074;-73
2023/01/13 10:36:11;;;;;;;27.17;3.10;;;9.60;99.90;;;;;;5040048;28;20037;-73
2023/01/13 10:38:42;;;;;;;26.02;3.75;;;9.60;99.90;;;;;;5043073;28;20033;-74
2023/01/13 10:41:19;;;;;;;20.85;3.33;;;9.60;99.90;;;;;;5038805;28;20052;-73
2023/01/13 10:43:58;;;;;;;25.73;3.33;;;9.60;99.90;;;;;;5043610;28;20053;-73
2023/01/13 10:46:24;;;;;;;21.88;3.10;;;9.60;99.90;;;;;;5041334;28;20056;-74
2023/01/13 10:52:28;;;;;;;23.30;3.42;;;9.60;99.90;;;;;;5008006;28;20041;-73
2023/01/13 10:54:54;;;;;;;27.95;3.67;;;9.60;99.90;;;;;;5003378;28;20069;-73
2023/01/13 10:57:22;;;;;;;27.65;3.15;;;9.60;99.90;;;;;;5008620;28;20039;-73
2023/01/13 10:59:52;;;;;;;18.67;3.40;;;9.60;99.90;;;;;;5004923;28;20140;-73
2023/01/13 11:02:32;;;;;;;20.60;3.60;;;9.70;99.90;;;;;;4999748;28;20042;-73
2023/01/13 11:05:07;;;;;;;25.02;3.45;;;9.70;99.90;;;;;;5016625;28;20028;-73
2023/01/13 11:07:35;;;;;;;20.10;3.63;;;9.70;99.90;;;;;;5005697;28;20104;-73
2023/01/13 11:10:09;;;;;;;22.58;3.72;;;9.70;99.90;;;;;;4997777;28;20042;-73
2023/01/13 11:13:02;;;;;;;25.90;4.47;;;9.70;99.90;;;;;;4990841;28;20047;-73
2023/01/13 11:15:37;;;;;;;24.15;3.35;;;9.70;99.90;;;;;;4994327;28;20030;-73
2023/01/13 11:18:18;;;;;;;26.88;3.70;;;9.70;99.90;;;;;;4984882;28;20053;-73
2023/01/13 11:20:47;;;;;;;26.33;3.42;;;9.70;99.90;;;;;;4998473;28;20060;-73
2023/01/13 11:23:15;;;;;;;24.67;3.65;;;9.70;99.90;;;;;;5026177;28;20033;-73
2023/01/13 11:25:45;;;;;;;25.30;3.67;;;9.70;99.90;;;;;;5039865;28;20021;-73
2023/01/13 11:28:26;;;;;;;26.48;4.10;;;9.80;99.90;;;;;;5046747;28;20028;-73
2023/01/13 11:30:58;;;;;;;22.80;3.40;;;9.80;99.90;;;;;;5048982;28;20487;-73
2023/01/13 11:33:42;;;;;;;21.15;3.35;;;9.80;99.90;;;;;;5046784;28;20151;-73
2023/01/13 11:36:38;;;;;;;27.50;3.60;;;9.80;99.90;;;;;;5047173;28;20449;-73
2023/01/13 11:39:10;;;;;;;28.05;4.00;;;9.80;99.90;;;;;;5044544;28;20555;-74
2023/01/13 11:44:48;;;;;;;23.70;3.20;;;9.90;99.90;;;;;;5048634;28;20032;-73
2023/01/13 11:47:19;;;;;;;25.05;3.67;;;9.90;99.90;;;;;;5048767;28;20132;-73
2023/01/13 11:49:47;;;;;;;21.83;3.08;;;9.90;99.90;;;;;;5047678;28;20095;-73
2023/01/13 11:52:34;;;;;;;23.77;3.20;;;9.90;99.90;;;;;;5049720;28;20024;-74
2023/01/13 11:55:27;;;;;;;23.67;3.38;;;9.90;99.90;;;;;;5027644;28;20013;-73
2023/01/13 11:58:08;;;;;;;20.08;3.35;;;9.90;99.90;;;;;;5044632;28;20025;-74
2023/01/13 12:00:37;;;;;;;19.33;3.40;;;9.90;99.90;;;;;;5040150;28;20040;-73
2023/01/13 12:03:28;;;;;;;16.83;2.95;;;9.90;99.90;;;;;;5034112;28;20380;-74
2023/01/13 12:06:12;;;;;;;26.38;4.32;;;10.00;99.90;;;;;;5041148;28;20033;-73
2023/01/13 12:08:49;;;;;;;17.20;3.15;;;10.00;99.90;;;;;;5033452;28;20057;-73
2023/01/13 12:14:32;;;;;;;22.90;3.20;;;10.00;99.90;;;;;;5052270;28;20122;-74
2023/01/13 12:17:00;;;;;;;20.92;3.22;;;10.00;99.90;;;;;;5051159;28;20388;-73
2023/01/13 12:19:31;;;;;;;20.10;2.85;;;10.00;99.90;;;;;;5049528;28;20476;-74
2023/01/13 12:22:13;;;;;;;18.58;3.75;;;10.00;99.90;;;;;;5042092;28;20502;-73
2023/01/13 12:24:45;;;;;;;25.50;3.35;;;10.00;99.90;;;;;;5048644;28;20028;-74
2023/01/13 12:27:22;;;;;;;22.52;3.67;;;10.00;99.90;;;;;;5041715;28;20463;-73
2023/01/13 12:29:51;;;;;;;25.90;3.10;;;10.00;99.90;;;;;;5033799;28;20045;-73
2023/01/13 12:32:22;;;;;;;23.85;2.88;;;10.00;99.90;;;;;;5040788;28;20086;-73
2023/01/13 12:34:54;;;;;;;19.40;3.13;;;10.00;99.90;;;;;;5038199;28;20029;-74
2023/01/13 12:37:48;;;;;;;21.33;3.58;;;10.00;99.90;;;;;;5051425;28;20021;-74
2023/01/13 12:40:40;;;;;;;25.50;3.47;;;10.00;99.90;;;;;;5046127;28;20380;-73
2023/01/13 12:46:20;;;;;;;20.77;2.70;;;10.00;99.90;;;;;;5050363;28;20032;-74
2023/01/13 12:48:55;;;;;;;19.60;3.15;;;10.00;99.90;;;;;;5039677;28;20036;-73
2023/01/13 12:51:35;;;;;;;;;;;10.00;99.90;;;;;;5051265;28;20047;-74
2023/01/13 12:54:24;;;;;;;27.23;3.63;;;10.00;99.90;;;;;;5052745;28;19908;-75
2023/01/13 12:56:50;;;;;;;17.77;2.78;;;10.00;99.90;;;;;;5032404;28;20056;-74
2023/01/13 12:59:15;;;;;;;18.08;3.00;;;9.90;99.90;;;;;;5032418;28;20384;-73
2023/01/13 13:01:42;;;;;;;16.92;3.28;;;10.00;99.90;;;;;;5044350;28;20380;-73
2023/01/13 13:04:13;;;;;;;15.55;2.72;;;10.00;99.90;;;;;;5043107;28;20033;-73
2023/01/13 13:06:54;;;;;;;22.95;3.13;;;10.00;99.90;;;;;;5050727;28;20127;-73
2023/01/13 13:09:31;;;;;;;16.33;2.65;;;10.00;99.90;;;;;;5048493;28;20051;-74
2023/01/13 13:14:38;;;;;;;21.10;2.92;;;10.00;99.90;;;;;;5049627;28;20361;-73
2023/01/13 13:17:29;;;;;;;24.20;3.20;;;10.00;99.90;;;;;;5050491;28;20090;-73
2023/01/13 13:19:56;;;;;;;21.80;3.22;;;10.00;99.90;;;;;;5049071;28;20055;-73
2023/01/13 13:22:33;;;;;;;17.92;3.03;;;10.00;99.90;;;;;;5050438;28;20013;-73
2023/01/13 13:25:02;;;;;;;16.27;3.22;;;10.00;99.90;;;;;;5049042;28;20021;-73
2023/01/13 13:27:43;;;;;;;23.25;3.22;;;10.00;99.90;;;;;;5047953;28;20480;-73
2023/01/13 13:30:24;;;;;;;22.52;2.83;;;10.00;99.90;;;;;;5044674;28;20028;-73
2023/01/13 13:33:21;;;;;;;25.98;3.20;;;10.00;99.90;;;;;;5048033;28;20498;-73
2023/01/13 13:36:32;;;;;;;25.75;3.25;;;10.00;99.90;;;;;;5020563;28;20071;-74
2023/01/13 13:47:39;;;;;;;21.70;3.10;;;10.00;99.90;;;;;;4968517;28;20097;-74
2023/01/13 13:50:11;;;;;;;25.35;3.60;;;10.00;99.90;;;;;;4969535;28;20451;-73
2023/01/13 13:52:50;;;;;;;17.00;2.80;;;10.00;99.90;;;;;;4969554;28;20031;-72
2023/01/13 13:55:18;;;;;;;25.40;3.22;;;10.00;99.90;;;;;;4968905;28;20031;-72
2023/01/13 13:57:50;;;;;;;24.45;2.80;;;10.00;99.90;;;;;;4969065;28;20393;-73
2023/01/13 14:00:29;;;;;;;22.42;3.10;;;10.00;99.90;;;;;;4977287;28;20040;-73
2023/01/13 14:03:00;;;;;;;19.05;3.17;;;10.00;99.90;;;;;;4971713;28;20518;-73
2023/01/13 14:05:30;;;;;;;19.17;3.42;;;10.00;99.90;;;;;;4969862;28;20027;-73
2023/01/13 14:08:14;;;;;;;18.40;2.60;;;10.00;99.90;;;;;;4968288;28;20050;-73
2023/01/13 14:10:41;;;;;;;19.55;3.55;;;10.00;99.90;;;;;;4968280;28;20144;-73
2023/01/13 14:13:17;;;;;;;17.75;3.22;;;10.00;99.90;;;;;;4968464;28;20078;-73
2023/01/13 14:15:45;;;;;;;18.20;2.53;;;10.00;99.90;;;;;;5044796;28;20096;-73